createdAt,value
2016-01-06T07:48:47.252Z,-6.8
2016-01-06T07:49:46.708Z,-6.7
2016-01-06T07:50:49.242Z,-6.7
2016-01-06T07:51:45.777Z,-6.7
2016-01-06T07:52:45.294Z,-6.7
2016-01-06T07:53:44.829Z,-6.7
2016-01-06T07:54:44.363Z,-6.7
2016-01-06T07:55:43.646Z,-6.7
2016-01-06T07:56:43.227Z,-6.7
2016-01-06T07:57:45.058Z,-6.7
2016-01-06T07:58:44.545Z,-6.7
2016-01-06T07:59:44.063Z,-6.7
2016-01-06T08:00:43.348Z,-6.7
2016-01-06T08:01:42.865Z,-6.7
2016-01-06T08:02:42.431Z,-6.7
2016-01-06T08:03:42.199Z,-6.7
2016-01-06T08:04:41.967Z,-6.7
2016-01-06T08:05:41.501Z,-6.7
2016-01-06T08:06:40.848Z,-6.7
2016-01-06T08:07:45.632Z,-6.7
2016-01-06T08:08:42.416Z,-6.7
2016-01-06T08:09:41.934Z,-6.7
2016-01-06T08:10:41.718Z,-6.7
2016-01-06T08:11:41.252Z,-6.7
2016-01-06T08:12:40.536Z,-6.7
2016-01-06T08:13:40.055Z,-6.7
2016-01-06T08:14:39.338Z,-6.7
2016-01-06T08:16:38.203Z,-6.7
2016-01-06T08:17:39.972Z,-6.7
2016-01-06T08:18:39.256Z,-6.7
2016-01-06T08:19:38.774Z,-6.7
2016-01-06T08:20:38.058Z,-6.7
2016-01-06T08:21:37.342Z,-6.7
2016-01-06T08:22:36.594Z,-6.7
2016-01-06T08:23:35.878Z,-6.7
2016-01-06T08:24:38.147Z,-6.7
2016-01-06T08:25:34.415Z,-6.7
2016-01-06T08:26:33.746Z,-6.7
2016-01-06T08:27:35.530Z,-6.6
2016-01-06T08:28:34.813Z,-6.6
2016-01-06T08:29:34.066Z,-6.7
2016-01-06T08:30:33.351Z,-6.7
2016-01-06T08:31:32.618Z,-6.6
2016-01-06T08:32:31.902Z,-6.6
2016-01-06T08:33:31.171Z,-6.7
2016-01-06T08:34:30.440Z,-6.7
2016-01-06T08:35:29.723Z,-6.7
2016-01-06T08:36:29.054Z,-6.6
2016-01-06T08:37:30.823Z,-6.6
2016-01-06T08:38:30.107Z,-6.6
2016-01-06T08:39:29.375Z,-6.6
2016-01-06T08:40:28.643Z,-6.6
2016-01-06T08:41:27.912Z,-6.5
2016-01-06T08:42:27.211Z,-6.5
2016-01-06T08:43:26.464Z,-6.6
2016-01-06T08:44:25.748Z,-6.5
2016-01-06T08:45:25.001Z,-6.5
2016-01-06T08:46:24.329Z,-6.5
2016-01-06T08:47:26.113Z,-6.5
2016-01-06T08:48:25.131Z,-6.5
2016-01-06T08:49:24.400Z,-6.4
2016-01-06T08:50:23.667Z,-6.5
2016-01-06T08:51:22.436Z,-6.5
2016-01-06T08:52:21.194Z,-6.5
2016-01-06T08:53:19.954Z,-6.5
2016-01-06T08:54:19.894Z,-6.5
2016-01-06T08:55:18.279Z,-6.5
2016-01-06T08:56:16.282Z,-6.4
2016-01-06T08:57:18.128Z,-6.4
2016-01-06T09:00:14.339Z,-6.4
2016-01-06T09:01:13.092Z,-6.4
2016-01-06T09:02:11.860Z,-6.4
2016-01-06T09:03:10.613Z,-6.5
2016-01-06T09:04:09.365Z,-6.5
2016-01-06T09:05:08.134Z,-6.5
2016-01-06T09:06:06.949Z,-6.5
2016-01-06T09:07:08.734Z,-6.5
2016-01-06T09:08:07.751Z,-6.5
2016-01-06T09:09:06.770Z,-6.5
2016-01-06T09:10:05.522Z,-6.5
2016-01-06T09:11:04.275Z,-6.5
2016-01-06T09:12:03.044Z,-6.6
2016-01-06T09:13:01.812Z,-6.6
2016-01-06T09:14:00.564Z,-6.5
2016-01-06T09:14:59.317Z,-6.5
2016-01-06T09:15:58.133Z,-6.5
2016-01-06T09:16:59.948Z,-6.4
2016-01-06T09:17:59.200Z,-6.4
2016-01-06T09:18:58.453Z,-6.4
2016-01-06T09:19:57.737Z,-6.4
2016-01-06T09:20:57.005Z,-6.5
2016-01-06T09:21:55.758Z,-6.5
2016-01-06T09:22:54.527Z,-6.5
2016-01-06T09:23:53.794Z,-6.5
2016-01-06T09:24:53.079Z,-6.4
2016-01-06T09:25:52.393Z,-6.3
2016-01-06T09:26:54.178Z,-6.3
2016-01-06T09:27:53.446Z,-6.3
2016-01-06T09:28:52.746Z,-6.3
2016-01-06T09:29:51.999Z,-6.3
2016-01-06T09:30:51.282Z,-6.2
2016-01-06T09:31:50.801Z,-6.2
2016-01-06T09:32:50.085Z,-6.1
2016-01-06T09:33:49.384Z,-6.1
2016-01-06T09:34:48.887Z,-6.1
2016-01-06T09:35:48.217Z,-6.1
2016-01-06T09:36:49.986Z,-6.1
2016-01-06T09:37:49.270Z,-6.1
2016-01-06T09:38:48.537Z,-6.1
2016-01-06T09:39:47.807Z,-6.1
2016-01-06T09:40:47.090Z,-6.1
2016-01-06T09:41:46.609Z,-6.1
2016-01-06T09:42:45.924Z,-6
2016-01-06T09:43:45.159Z,-6
2016-01-06T09:44:44.692Z,-6
2016-01-06T09:45:44.054Z,-6
2016-01-06T09:46:45.823Z,-6.1
2016-01-06T09:47:45.092Z,-6
2016-01-06T09:48:44.344Z,-6.1
2016-01-06T09:49:43.675Z,-6.1
2016-01-06T09:50:42.911Z,-6.1
2016-01-06T09:51:42.149Z,-6.1
2016-01-06T09:52:41.448Z,-6.2
2016-01-06T09:53:40.435Z,-6.2
2016-01-06T09:54:39.454Z,-6.2
2016-01-06T09:55:38.535Z,-6.2
2016-01-06T09:56:40.334Z,-6.2
2016-01-06T09:57:39.353Z,-6.1
2016-01-06T09:58:38.339Z,-6.1
2016-01-06T09:59:37.624Z,-6.1
2016-01-06T10:00:36.891Z,-6.1
2016-01-06T10:01:36.176Z,-6
2016-01-06T10:02:35.429Z,-6.1
2016-01-06T10:03:34.213Z,-6.1
2016-01-06T10:04:33.231Z,-6
2016-01-06T10:05:32.546Z,-6
2016-01-06T10:06:34.346Z,-6
2016-01-06T10:07:33.349Z,-6
2016-01-06T10:08:32.102Z,-6
2016-01-06T10:09:30.869Z,-6
2016-01-06T10:10:29.622Z,-6
2016-01-06T10:11:28.421Z,-6
2016-01-06T10:12:27.143Z,-6
2016-01-06T10:13:25.912Z,-6
2016-01-06T10:14:24.664Z,-6
2016-01-06T10:15:23.479Z,-5.9
2016-01-06T10:16:25.248Z,-5.9
2016-01-06T10:17:24.015Z,-5.9
2016-01-06T10:18:23.034Z,-5.9
2016-01-06T10:19:21.818Z,-5.9
2016-01-06T10:20:20.571Z,-5.9
2016-01-06T10:21:19.323Z,-5.8
2016-01-06T10:22:18.342Z,-5.8
2016-01-06T10:23:17.329Z,-5.8
2016-01-06T10:24:16.097Z,-5.8
2016-01-06T10:25:15.162Z,-5.8
2016-01-06T10:26:16.946Z,-5.7
2016-01-06T10:27:16.230Z,-5.7
2016-01-06T10:28:15.749Z,-5.7
2016-01-06T10:29:15.533Z,-5.7
2016-01-06T10:30:14.800Z,-5.8
2016-01-06T10:31:14.085Z,-5.8
2016-01-06T10:32:13.353Z,-5.8
2016-01-06T10:33:12.622Z,-5.8
2016-01-06T10:34:11.890Z,-5.8
2016-01-06T10:35:11.236Z,-5.9
2016-01-06T10:36:13.004Z,-5.9
2016-01-06T10:37:12.273Z,-5.9
2016-01-06T10:38:11.572Z,-5.9
2016-01-06T10:39:10.840Z,-5.9
2016-01-06T10:40:10.093Z,-5.9
2016-01-06T10:41:09.362Z,-5.9
2016-01-06T10:42:08.380Z,-6
2016-01-06T10:43:07.149Z,-6
2016-01-06T10:44:06.182Z,-6
2016-01-06T10:45:05.232Z,-6.1
2016-01-06T10:46:07.015Z,-6
2016-01-06T10:47:06.285Z,-6.1
2016-01-06T10:48:05.568Z,-6
2016-01-06T10:49:05.102Z,-6
2016-01-06T10:50:04.887Z,-6
2016-01-06T10:51:04.654Z,-5.9
2016-01-06T10:52:04.454Z,-6
2016-01-06T10:53:04.238Z,-6
2016-01-06T10:54:03.773Z,-5.9
2016-01-06T10:55:03.337Z,-5.9
2016-01-06T10:56:05.136Z,-5.9
2016-01-06T10:57:04.905Z,-5.9
2016-01-06T10:58:04.689Z,-5.9
2016-01-06T10:59:04.223Z,-5.9
2016-01-06T11:00:03.491Z,-5.9
2016-01-06T11:01:03.025Z,-5.9
2016-01-06T11:02:02.310Z,-5.9
2016-01-06T11:03:01.560Z,-5.9
2016-01-06T11:04:00.845Z,-5.9
2016-01-06T11:05:00.143Z,-5.9
2016-01-06T11:06:01.959Z,-5.9
2016-01-06T11:07:01.228Z,-5.9
2016-01-06T11:08:00.214Z,-5.9
2016-01-06T11:08:59.498Z,-5.9
2016-01-06T11:09:58.767Z,-5.8
2016-01-06T11:10:58.034Z,-5.8
2016-01-06T11:11:57.303Z,-5.7
2016-01-06T11:12:56.572Z,-5.7
2016-01-06T11:13:56.105Z,-5.7
2016-01-06T11:14:55.686Z,-5.6
2016-01-06T11:15:57.455Z,-5.7
2016-01-06T11:16:56.738Z,-5.7
2016-01-06T11:17:56.007Z,-5.7
2016-01-06T11:18:55.275Z,-5.7
2016-01-06T11:19:54.293Z,-5.8
2016-01-06T11:20:53.561Z,-5.8
2016-01-06T11:21:52.830Z,-5.7
2016-01-06T11:22:52.098Z,-5.7
2016-01-06T11:24:50.697Z,-5.6
2016-01-06T11:26:51.749Z,-5.7
2016-01-06T11:27:51.018Z,-5.6
2016-01-06T11:28:50.301Z,-5.6
2016-01-06T11:29:49.555Z,-5.6
2016-01-06T11:30:48.824Z,-5.6
2016-01-06T11:31:48.106Z,-5.5
2016-01-06T11:32:47.375Z,-5.5
2016-01-06T11:33:46.643Z,-5.6
2016-01-06T11:34:45.974Z,-5.6
2016-01-06T11:35:47.759Z,-5.5
2016-01-06T11:36:47.042Z,-5.6
2016-01-06T11:37:46.029Z,-5.6
2016-01-06T11:38:45.047Z,-5.6
2016-01-06T11:39:44.067Z,-5.5
2016-01-06T11:40:43.069Z,-5.5
2016-01-06T11:41:41.837Z,-5.5
2016-01-06T11:42:40.589Z,-5.5
2016-01-06T11:43:39.342Z,-5.5
2016-01-06T11:45:40.208Z,-5.5
2016-01-06T11:46:38.960Z,-5.5
2016-01-06T11:47:37.713Z,-5.5
2016-01-06T11:48:36.466Z,-5.5
2016-01-06T11:49:35.219Z,-5.5
2016-01-06T11:50:33.986Z,-5.5
2016-01-06T11:51:32.739Z,-5.5
2016-01-06T11:52:31.492Z,-5.5
2016-01-06T11:53:30.260Z,-5.5
2016-01-06T11:54:29.075Z,-5.5
2016-01-06T11:55:30.844Z,-5.5
2016-01-06T11:56:29.612Z,-5.5
2016-01-06T11:57:28.365Z,-5.5
2016-01-06T11:58:27.117Z,-5.5
2016-01-06T11:59:25.871Z,-5.5
2016-01-06T12:00:24.638Z,-5.5
2016-01-06T12:01:23.391Z,-5.5
2016-01-06T12:02:22.175Z,-5.5
2016-01-06T12:03:20.896Z,-5.4
2016-01-06T12:04:19.712Z,-5.4
2016-01-06T12:05:21.495Z,-5.4
2016-01-06T12:06:19.998Z,-5.3
2016-01-06T12:07:18.751Z,-5.3
2016-01-06T12:08:17.254Z,-5.4
2016-01-06T12:09:15.756Z,-5.4
2016-01-06T12:10:14.259Z,-5.3
2016-01-06T12:11:12.743Z,-5.4
2016-01-06T12:12:11.512Z,-5.4
2016-01-06T12:13:10.265Z,-5.5
2016-01-06T12:14:12.673Z,-5.5
2016-01-06T12:15:14.457Z,-5.5
2016-01-06T12:16:16.806Z,-5.4
2016-01-06T12:17:15.309Z,-5.4
2016-01-06T12:18:14.059Z,-5.4
2016-01-06T12:19:12.562Z,-5.3
2016-01-06T12:20:11.065Z,-5.3
2016-01-06T12:22:11.898Z,-5.3
2016-01-06T12:23:14.261Z,-5.4
2016-01-06T12:24:16.672Z,-5.4
2016-01-06T12:25:18.441Z,-5.4
2016-01-06T12:26:20.802Z,-5.4
2016-01-06T12:27:23.149Z,-5.4
2016-01-06T12:28:25.495Z,-5.4
2016-01-06T12:29:27.841Z,-5.5
2016-01-06T12:30:29.938Z,-5.5
2016-01-06T12:31:31.785Z,-5.5
2016-01-06T12:32:33.616Z,-5.5
2016-01-06T12:33:35.446Z,-5.5
2016-01-06T12:34:37.340Z,-5.5
2016-01-06T12:35:39.123Z,-5.5
2016-01-06T12:36:40.955Z,-5.6
2016-01-06T12:37:42.785Z,-5.5
2016-01-06T12:38:44.865Z,-5.5
2016-01-06T12:39:47.212Z,-5.5
2016-01-06T12:40:49.574Z,-5.5
2016-01-06T12:41:51.920Z,-5.5
2016-01-06T12:42:54.267Z,-5.5
2016-01-06T12:43:56.614Z,-5.5
2016-01-06T12:44:59.023Z,-5.4
2016-01-06T12:47:03.153Z,-5.5
2016-01-06T12:48:05.234Z,-5.5
2016-01-06T12:49:07.330Z,-5.5
2016-01-06T12:50:09.426Z,-5.5
2016-01-06T12:51:11.772Z,-5.5
2016-01-06T12:52:14.119Z,-5.4
2016-01-06T12:53:16.467Z,-5.3
2016-01-06T12:54:18.812Z,-5.3
2016-01-06T12:55:21.224Z,-5.3
2016-01-06T12:56:23.008Z,-5.3
2016-01-06T12:57:25.355Z,-5.3
2016-01-06T12:58:27.700Z,-5.4
2016-01-06T12:59:30.047Z,-5.4
2016-01-06T13:00:32.394Z,-5.3
2016-01-06T13:01:34.490Z,-5.4
2016-01-06T13:02:36.571Z,-5.4
2016-01-06T13:03:38.683Z,-5.4
2016-01-06T13:04:40.513Z,-5.4
2016-01-06T13:05:42.407Z,-5.4
2016-01-06T13:06:44.176Z,-5.4
2016-01-06T13:07:46.272Z,-5.4
2016-01-06T13:08:48.352Z,-5.4
2016-01-06T13:09:50.449Z,-5.4
2016-01-06T13:10:52.796Z,-5.4
2016-01-06T13:11:55.157Z,-5.4
2016-01-06T13:12:57.488Z,-5.4
2016-01-06T13:13:59.584Z,-5.4
2016-01-06T13:15:01.682Z,-5.3
2016-01-06T13:16:04.090Z,-5.3
2016-01-06T13:17:05.874Z,-5.3
2016-01-06T13:18:08.220Z,-5.3
2016-01-06T13:19:10.301Z,-5.4
2016-01-06T13:20:12.398Z,-5.4
2016-01-06T13:21:14.495Z,-5.4
2016-01-06T13:22:16.591Z,-5.3
2016-01-06T13:23:18.687Z,-5.3
2016-01-06T13:24:21.017Z,-5.3
2016-01-06T13:25:23.131Z,-5.4
2016-01-06T13:27:26.794Z,-5.4
2016-01-06T13:28:28.891Z,-5.4
2016-01-06T13:29:30.972Z,-5.3
2016-01-06T13:30:33.333Z,-5.3
2016-01-06T13:31:35.680Z,-5.3
2016-01-06T13:32:37.760Z,-5.4
2016-01-06T13:33:39.857Z,-5.4
2016-01-06T13:34:41.969Z,-5.3
2016-01-06T13:35:44.050Z,-5.4
2016-01-06T13:36:46.444Z,-5.4
2016-01-06T13:37:48.227Z,-5.3
2016-01-06T13:38:50.574Z,-5.3
2016-01-06T13:39:52.921Z,-5.3
2016-01-06T13:40:55.283Z,-5.3
2016-01-06T13:41:57.629Z,-5.2
2016-01-06T13:42:59.976Z,-5.3
2016-01-06T13:44:02.321Z,-5.2
2016-01-06T13:45:04.418Z,-5.2
2016-01-06T13:46:06.499Z,-5.3
2016-01-06T13:47:08.659Z,-5.3
2016-01-06T13:49:12.523Z,-5.2
2016-01-06T13:50:14.619Z,-5.2
2016-01-06T13:51:16.700Z,-5.2
2016-01-06T13:52:18.797Z,-5.2
2016-01-06T13:53:20.893Z,-5.2
2016-01-06T13:54:22.739Z,-5.3
2016-01-06T13:55:24.570Z,-5.3
2016-01-06T13:56:26.401Z,-5.3
2016-01-06T13:57:28.297Z,-5.3
2016-01-06T13:58:30.081Z,-5.3
2016-01-06T13:59:31.912Z,-5.3
2016-01-06T14:00:33.743Z,-5.2
2016-01-06T14:01:35.574Z,-5.3
2016-01-06T14:02:37.420Z,-5.3
2016-01-06T14:03:39.250Z,-5.3
2016-01-06T14:04:41.082Z,-5.3
2016-01-06T14:05:42.928Z,-5.3
2016-01-06T14:06:44.759Z,-5.3
2016-01-06T14:07:46.652Z,-5.3
2016-01-06T14:08:48.436Z,-5.3
2016-01-06T14:09:50.267Z,-5.3
2016-01-06T14:10:52.098Z,-5.3
2016-01-06T14:11:53.944Z,-5.3
2016-01-06T14:13:57.607Z,-5.3
2016-01-06T14:14:59.452Z,-5.3
2016-01-06T14:16:01.033Z,-5.3
2016-01-06T14:17:02.865Z,-5.3
2016-01-06T14:18:04.757Z,-5.3
2016-01-06T14:19:06.526Z,-5.3
2016-01-06T14:20:08.107Z,-5.4
2016-01-06T14:21:09.437Z,-5.3
2016-01-06T14:22:11.003Z,-5.4
2016-01-06T14:23:12.318Z,-5.4
2016-01-06T14:24:13.648Z,-5.5
2016-01-06T14:25:14.964Z,-5.5
2016-01-06T14:26:16.294Z,-5.4
2016-01-06T14:27:17.610Z,-5.4
2016-01-06T14:28:18.987Z,-5.4
2016-01-06T14:29:20.756Z,-5.5
2016-01-06T14:30:22.086Z,-5.5
2016-01-06T14:31:23.402Z,-5.5
2016-01-06T14:32:24.733Z,-5.5
2016-01-06T14:33:26.037Z,-5.5
2016-01-06T14:34:27.340Z,-5.5
2016-01-06T14:35:28.660Z,-5.6
2016-01-06T14:36:29.962Z,-5.6
2016-01-06T14:37:31.281Z,-5.6
2016-01-06T14:38:32.639Z,-5.5
2016-01-06T14:39:34.418Z,-5.6
2016-01-06T14:40:35.728Z,-5.6
2016-01-06T14:41:37.055Z,-5.6
2016-01-06T14:42:38.634Z,-5.5
2016-01-06T14:43:40.197Z,-5.5
2016-01-06T14:44:41.525Z,-5.5
2016-01-06T14:45:42.840Z,-5.5
2016-01-06T14:46:44.419Z,-5.5
2016-01-06T14:47:45.999Z,-5.6
2016-01-06T14:48:47.377Z,-5.6
2016-01-06T14:49:49.160Z,-5.6
2016-01-06T14:50:50.475Z,-5.6
2016-01-06T14:51:51.790Z,-5.6
2016-01-06T14:52:53.121Z,-5.7
2016-01-06T14:53:54.435Z,-5.7
2016-01-06T14:54:55.750Z,-5.6
2016-01-06T14:55:57.081Z,-5.6
2016-01-06T14:57:59.460Z,-5.7
2016-01-06T14:59:00.839Z,-5.7
2016-01-06T15:00:02.622Z,-5.6
2016-01-06T15:01:03.937Z,-5.6
2016-01-06T15:02:05.268Z,-5.6
2016-01-06T15:03:06.584Z,-5.6
2016-01-06T15:04:07.899Z,-5.6
2016-01-06T15:05:09.480Z,-5.6
2016-01-06T15:06:10.811Z,-5.6
2016-01-06T15:07:12.141Z,-5.6
2016-01-06T15:08:13.191Z,-5.7
2016-01-06T15:09:14.584Z,-5.7
2016-01-06T15:10:16.352Z,-5.7
2016-01-06T15:11:17.418Z,-5.7
2016-01-06T15:12:18.483Z,-5.7
2016-01-06T15:13:19.799Z,-5.7
2016-01-06T15:14:21.129Z,-5.7
2016-01-06T15:15:22.444Z,-5.7
2016-01-06T15:16:23.775Z,-5.6
2016-01-06T15:17:25.340Z,-5.6
2016-01-06T15:18:26.671Z,-5.6
2016-01-06T15:19:28.048Z,-5.6
2016-01-06T15:20:29.832Z,-5.6
2016-01-06T15:21:31.148Z,-5.6
2016-01-06T15:22:32.463Z,-5.6
2016-01-06T15:23:33.793Z,-5.6
2016-01-06T15:24:35.109Z,-5.6
2016-01-06T15:25:36.424Z,-5.6
2016-01-06T15:26:37.754Z,-5.6
2016-01-06T15:27:39.086Z,-5.7
2016-01-06T15:28:40.401Z,-5.7
2016-01-06T15:29:41.778Z,-5.6
2016-01-06T15:30:43.562Z,-5.6
2016-01-06T15:31:44.878Z,-5.6
2016-01-06T15:32:46.212Z,-5.6
2016-01-06T15:33:47.526Z,-5.7
2016-01-06T15:34:48.591Z,-5.7
2016-01-06T15:35:49.656Z,-5.7
2016-01-06T15:37:52.037Z,-5.8
2016-01-06T15:38:53.103Z,-5.8
2016-01-06T15:39:53.964Z,-5.8
2016-01-06T15:40:55.749Z,-5.8
2016-01-06T15:41:56.813Z,-5.8
2016-01-06T15:42:58.144Z,-5.8
2016-01-06T15:43:59.460Z,-5.8
2016-01-06T15:45:00.524Z,-5.8
2016-01-06T15:46:01.340Z,-5.8
2016-01-06T15:47:02.405Z,-5.8
2016-01-06T15:48:03.721Z,-5.8
2016-01-06T15:49:05.051Z,-5.8
2016-01-06T15:50:06.429Z,-5.8
2016-01-06T15:51:08.197Z,-5.8
2016-01-06T15:52:09.529Z,-5.7
2016-01-06T15:53:10.843Z,-5.7
2016-01-06T15:54:12.174Z,-5.6
2016-01-06T15:55:13.505Z,-5.6
2016-01-06T15:56:14.820Z,-5.6
2016-01-06T15:57:16.135Z,-5.6
2016-01-06T15:58:17.450Z,-5.6
2016-01-06T15:59:18.782Z,-5.6
2016-01-06T16:00:20.160Z,-5.6
2016-01-06T16:01:21.928Z,-5.7
2016-01-06T16:02:22.743Z,-5.8
2016-01-06T16:03:23.808Z,-5.8
2016-01-06T16:04:25.139Z,-5.8
2016-01-06T16:05:26.454Z,-5.7
2016-01-06T16:06:27.769Z,-5.7
2016-01-06T16:07:29.100Z,-5.7
2016-01-06T16:08:30.414Z,-5.7
2016-01-06T16:09:31.230Z,-5.8
2016-01-06T16:10:32.359Z,-5.7
2016-01-06T16:11:34.126Z,-5.7
2016-01-06T16:12:35.458Z,-5.7
2016-01-06T16:13:36.523Z,-5.8
2016-01-06T16:14:37.322Z,-5.9
2016-01-06T16:15:38.137Z,-5.8
2016-01-06T16:16:38.952Z,-5.8
2016-01-06T16:17:40.017Z,-5.8
2016-01-06T16:18:41.083Z,-5.8
2016-01-06T16:19:42.147Z,-5.8
2016-01-06T16:20:43.275Z,-5.8
2016-01-06T16:21:45.044Z,-5.8
2016-01-06T16:22:46.375Z,-5.7
2016-01-06T16:23:47.690Z,-5.7
2016-01-06T16:24:49.021Z,-5.7
2016-01-06T16:25:50.336Z,-5.7
2016-01-06T16:26:51.401Z,-5.7
2016-01-06T16:27:52.466Z,-5.8
2016-01-06T16:28:53.532Z,-5.7
2016-01-06T16:29:54.346Z,-5.7
2016-01-06T16:30:55.474Z,-5.7
2016-01-06T16:31:57.243Z,-5.7
2016-01-06T16:32:58.310Z,-5.7
2016-01-06T16:33:59.376Z,-5.7
2016-01-06T16:35:00.706Z,-5.7
2016-01-06T16:36:02.022Z,-5.7
2016-01-06T16:37:03.353Z,-5.7
2016-01-06T16:38:04.668Z,-5.7
2016-01-06T16:39:05.998Z,-5.7
2016-01-06T16:40:07.329Z,-5.7
2016-01-06T16:41:08.442Z,-5.8
2016-01-06T16:42:10.225Z,-5.7
2016-01-06T16:43:11.541Z,-5.7
2016-01-06T16:44:12.872Z,-5.7
2016-01-06T16:45:14.187Z,-5.7
2016-01-06T16:46:15.252Z,-5.7
2016-01-06T16:47:16.317Z,-5.8
2016-01-06T16:48:17.383Z,-5.7
2016-01-06T16:49:18.697Z,-5.7
2016-01-06T16:50:19.763Z,-5.9
2016-01-06T16:51:20.125Z,-5.9
2016-01-06T16:52:21.909Z,-5.9
2016-01-06T16:53:22.708Z,-5.9
2016-01-06T16:54:23.523Z,-5.9
2016-01-06T16:55:24.339Z,-5.9
2016-01-06T16:56:25.404Z,-5.8
2016-01-06T16:57:26.469Z,-5.8
2016-01-06T16:59:28.335Z,-5.9
2016-01-06T17:00:29.165Z,-5.9
2016-01-06T17:01:30.026Z,-5.9
2016-01-06T17:02:31.795Z,-5.9
2016-01-06T17:03:32.860Z,-5.9
2016-01-06T17:04:34.191Z,-5.9
2016-01-06T17:05:35.522Z,-5.8
2016-01-06T17:06:36.837Z,-5.8
2016-01-06T17:07:38.152Z,-5.8
2016-01-06T17:08:39.467Z,-5.8
2016-01-06T17:09:40.282Z,-5.8
2016-01-06T17:10:41.348Z,-5.8
2016-01-06T17:11:42.476Z,-5.8
2016-01-06T17:12:44.260Z,-5.7
2016-01-06T17:13:45.575Z,-5.7
2016-01-06T17:14:46.905Z,-5.7
2016-01-06T17:15:47.956Z,-5.7
2016-01-06T17:16:49.020Z,-5.7
2016-01-06T17:17:49.836Z,-5.8
2016-01-06T17:18:50.635Z,-5.8
2016-01-06T17:19:51.451Z,-5.8
2016-01-06T17:20:52.531Z,-5.8
2016-01-06T17:21:53.643Z,-5.8
2016-01-06T17:22:55.427Z,-5.8
2016-01-06T17:23:56.492Z,-5.8
2016-01-06T17:24:57.558Z,-5.8
2016-01-06T17:25:58.373Z,-5.8
2016-01-06T17:26:59.438Z,-5.8
2016-01-06T17:28:00.238Z,-5.8
2016-01-06T17:29:01.052Z,-5.8
2016-01-06T17:30:01.868Z,-5.9
2016-01-06T17:31:02.667Z,-5.9
2016-01-06T17:32:03.545Z,-5.9
2016-01-06T17:33:05.313Z,-5.9
2016-01-06T17:34:06.129Z,-5.9
2016-01-06T17:35:06.944Z,-5.9
2016-01-06T17:36:08.010Z,-5.9
2016-01-06T17:37:08.824Z,-5.9
2016-01-06T17:38:09.623Z,-5.8
2016-01-06T17:39:10.707Z,-5.9
2016-01-06T17:40:11.506Z,-5.8
2016-01-06T17:41:12.323Z,-5.8
2016-01-06T17:42:13.184Z,-5.8
2016-01-06T17:43:14.968Z,-5.8
2016-01-06T17:44:16.033Z,-5.8
2016-01-06T17:45:17.098Z,-5.8
2016-01-06T17:46:17.898Z,-5.9
2016-01-06T17:47:18.714Z,-5.9
2016-01-06T17:48:19.529Z,-5.9
2016-01-06T17:49:20.328Z,-5.9
2016-01-06T17:50:21.142Z,-5.9
2016-01-06T17:51:21.958Z,-6
2016-01-06T17:52:22.320Z,-6.1
2016-01-06T17:53:24.072Z,-6.1
2016-01-06T17:54:24.373Z,-6.2
2016-01-06T17:55:24.672Z,-6.2
2016-01-06T17:56:24.955Z,-6.2
2016-01-06T17:57:25.521Z,-6.2
2016-01-06T17:58:26.336Z,-6.2
2016-01-06T18:00:27.951Z,-6.1
2016-01-06T18:01:28.766Z,-6.1
2016-01-06T18:02:29.738Z,-6.1
2016-01-06T18:03:31.413Z,-6.2
2016-01-06T18:04:32.213Z,-6.2
2016-01-06T18:05:33.027Z,-6.2
2016-01-06T18:06:33.827Z,-6.3
2016-01-06T18:07:34.642Z,-6.2
2016-01-06T18:08:35.457Z,-6.3
2016-01-06T18:09:36.273Z,-6.3
2016-01-06T18:10:37.071Z,-6.2
2016-01-06T18:11:37.887Z,-6.2
2016-01-06T18:12:38.749Z,-6.2
2016-01-06T18:13:40.534Z,-6.2
2016-01-06T18:14:41.348Z,-6.3
2016-01-06T18:15:42.148Z,-6.3
2016-01-06T18:16:42.963Z,-6.3
2016-01-06T18:17:43.762Z,-6.3
2016-01-06T18:18:44.578Z,-6.3
2016-01-06T18:19:45.393Z,-6.2
2016-01-06T18:20:46.208Z,-6.2
2016-01-06T18:21:47.273Z,-6.1
2016-01-06T18:22:48.150Z,-6.1
2016-01-06T18:23:49.919Z,-6.1
2016-01-06T18:24:50.734Z,-6.1
2016-01-06T18:26:52.365Z,-6.1
2016-01-06T18:27:53.164Z,-6.1
2016-01-06T18:28:53.980Z,-6.1
2016-01-06T18:30:55.611Z,-6.1
2016-01-06T18:31:56.425Z,-6.1
2016-01-06T18:32:57.288Z,-6.1
2016-01-06T18:33:59.088Z,-6
2016-01-06T18:36:00.702Z,-6
2016-01-06T18:37:01.517Z,-6
2016-01-06T18:38:02.301Z,-6.1
2016-01-06T18:39:03.116Z,-6.1
2016-01-06T18:40:03.932Z,-6.1
2016-01-06T18:41:04.746Z,-6.1
2016-01-06T18:42:05.546Z,-6.1
2016-01-06T18:43:06.424Z,-6.1
2016-01-06T18:44:08.207Z,-6.1
2016-01-06T18:45:09.007Z,-6.1
2016-01-06T18:46:09.823Z,-6.1
2016-01-06T18:47:10.638Z,-6.1
2016-01-06T18:48:11.454Z,-6.1
2016-01-06T18:49:12.253Z,-6.1
2016-01-06T18:50:13.068Z,-6.1
2016-01-06T18:51:13.883Z,-6.1
2016-01-06T18:52:14.699Z,-6.1
2016-01-06T18:53:15.560Z,-6.1
2016-01-06T18:54:17.345Z,-6.1
2016-01-06T18:55:18.145Z,-6.1
2016-01-06T18:56:18.959Z,-6.1
2016-01-06T18:57:19.775Z,-6.1
2016-01-06T18:58:20.573Z,-6.2
2016-01-06T18:59:21.389Z,-6.1
2016-01-06T19:00:22.220Z,-6.1
2016-01-06T19:01:23.020Z,-6.2
2016-01-06T19:02:23.819Z,-6.2
2016-01-06T19:03:24.746Z,-6.1
2016-01-06T19:04:26.467Z,-6.1
2016-01-06T19:06:28.083Z,-6.1
2016-01-06T19:07:28.632Z,-6.1
2016-01-06T19:08:29.447Z,-6.1
2016-01-06T19:09:30.246Z,-6.2
2016-01-06T19:10:31.062Z,-6.2
2016-01-06T19:11:31.877Z,-6.1
2016-01-06T19:12:32.693Z,-6.1
2016-01-06T19:13:33.554Z,-6.1
2016-01-06T19:14:35.339Z,-6.1
2016-01-06T19:15:36.138Z,-6.1
2016-01-06T19:17:37.518Z,-6.1
2016-01-06T19:18:38.318Z,-6.1
2016-01-06T19:19:39.132Z,-6.1
2016-01-06T19:20:39.932Z,-6.1
2016-01-06T19:21:40.748Z,-6.1
2016-01-06T19:22:41.562Z,-6.1
2016-01-06T19:23:42.425Z,-6.1
2016-01-06T19:24:44.209Z,-6.1
2016-01-06T19:25:44.759Z,-6.1
2016-01-06T19:26:45.340Z,-6
2016-01-06T19:27:46.139Z,-6
2016-01-06T19:28:46.939Z,-5.9
2016-01-06T19:29:47.753Z,-5.9
2016-01-06T19:31:49.369Z,-5.9
2016-01-06T19:33:51.186Z,-6
2016-01-06T19:34:52.580Z,-6.1
2016-01-06T19:35:52.895Z,-6.1
2016-01-06T19:36:53.163Z,-6.1
2016-01-06T19:37:53.760Z,-6.1
2016-01-06T19:38:54.278Z,-6.1
2016-01-06T19:39:54.828Z,-6.1
2016-01-06T19:40:55.127Z,-6.2
2016-01-06T19:41:55.427Z,-6.1
2016-01-06T19:42:55.977Z,-6.2
2016-01-06T19:43:56.589Z,-6.2
2016-01-06T19:44:58.372Z,-6.1
2016-01-06T19:45:59.188Z,-6.1
2016-01-06T19:46:59.988Z,-6.1
2016-01-06T19:48:00.537Z,-6.1
2016-01-06T19:49:01.102Z,-6.2
2016-01-06T19:50:01.652Z,-6.2
2016-01-06T19:51:01.951Z,-6.2
2016-01-06T19:52:02.501Z,-6.2
2016-01-06T19:53:03.332Z,-6.2
2016-01-06T19:54:03.928Z,-6.2
2016-01-06T19:56:06.512Z,-6.1
2016-01-06T19:57:07.326Z,-6.1
2016-01-06T19:58:07.626Z,-6.2
2016-01-06T19:59:07.957Z,-6.2
2016-01-06T20:00:08.209Z,-6.3
2016-01-06T20:01:08.509Z,-6.3
2016-01-06T20:02:08.825Z,-6.3
2016-01-06T20:03:09.359Z,-6.3
2016-01-06T20:05:12.036Z,-6.2
2016-01-06T20:06:12.836Z,-6.1
2016-01-06T20:07:13.650Z,-6.1
2016-01-06T20:08:14.184Z,-6.2
2016-01-06T20:09:14.750Z,-6.2
2016-01-06T20:10:15.033Z,-6.2
2016-01-06T20:11:15.333Z,-6.3
2016-01-06T20:13:15.683Z,-6.3
2016-01-06T20:15:18.078Z,-6.2
2016-01-06T20:17:19.693Z,-6.3
2016-01-06T20:18:20.259Z,-6.2
2016-01-06T20:19:21.136Z,-6.2
2016-01-06T20:20:21.919Z,-6.2
2016-01-06T20:22:23.504Z,-6.2
2016-01-06T20:23:24.334Z,-6.2
2016-01-06T20:24:25.180Z,-6.2
2016-01-06T20:26:27.999Z,-6.1
2016-01-06T20:27:28.313Z,-6.1
2016-01-06T20:28:28.879Z,-6.1
2016-01-06T20:29:29.429Z,-6.1
2016-01-06T20:30:30.229Z,-6.1
2016-01-06T20:32:31.093Z,-6.1
2016-01-06T20:34:32.004Z,-6.1
2016-01-06T20:35:33.804Z,-6.1
2016-01-06T20:36:34.338Z,-6.1
2016-01-06T20:37:34.887Z,-6.1
2016-01-06T20:38:35.718Z,-6
2016-01-06T20:39:36.518Z,-6
2016-01-06T20:40:37.068Z,-6
2016-01-06T20:41:37.617Z,-6
2016-01-06T20:42:38.167Z,-6.1
2016-01-06T20:43:38.716Z,-6.1
2016-01-06T20:44:39.344Z,-6
2016-01-06T20:45:41.112Z,-6.1
2016-01-06T20:46:41.662Z,-6.1
2016-01-06T20:47:42.211Z,-6.1
2016-01-06T20:49:43.327Z,-6
2016-01-06T20:50:43.610Z,-6.1
2016-01-06T20:51:43.911Z,-6.1
2016-01-06T20:52:44.210Z,-6.1
2016-01-06T20:53:44.508Z,-6.1
2016-01-06T20:54:45.168Z,-6.1
2016-01-06T20:55:46.888Z,-6.2
2016-01-06T20:56:47.501Z,-6.1
2016-01-06T20:57:48.007Z,-6.1
2016-01-06T20:58:48.307Z,-6.2
2016-01-06T20:59:48.606Z,-6.2
2016-01-06T21:00:48.890Z,-6.2
2016-01-06T21:01:49.189Z,-6.2
2016-01-06T21:02:49.489Z,-6.2
2016-01-06T21:03:49.820Z,-6.2
2016-01-06T21:04:50.135Z,-6.2
2016-01-06T21:05:51.950Z,-6.2
2016-01-06T21:06:52.484Z,-6.2
2016-01-06T21:07:53.033Z,-6.2
2016-01-06T21:08:53.599Z,-6.1
2016-01-06T21:09:54.148Z,-6.1
2016-01-06T21:10:54.698Z,-6.1
2016-01-06T21:11:55.248Z,-6.1
2016-01-06T21:12:55.813Z,-6.1
2016-01-06T21:13:56.097Z,-6.2
2016-01-06T21:14:56.459Z,-6.2
2016-01-06T21:15:58.228Z,-6.3
2016-01-06T21:16:58.527Z,-6.2
2016-01-06T21:17:58.858Z,-6.3
2016-01-06T21:18:59.125Z,-6.2
2016-01-06T21:19:59.675Z,-6.2
2016-01-06T21:20:59.975Z,-6.2
2016-01-06T21:22:00.274Z,-6.2
2016-01-06T21:24:00.874Z,-6.2
2016-01-06T21:25:01.219Z,-6.2
2016-01-06T21:26:03.019Z,-6.2
2016-01-06T21:27:03.305Z,-6.2
2016-01-06T21:28:03.603Z,-6.2
2016-01-06T21:29:03.903Z,-6.2
2016-01-06T21:30:04.202Z,-6.2
2016-01-06T21:31:04.502Z,-6.3
2016-01-06T21:33:05.038Z,-6.3
2016-01-06T21:34:04.869Z,-6.3
2016-01-06T21:35:05.232Z,-6.3
2016-01-06T21:36:07.016Z,-6.3
2016-01-06T21:37:07.315Z,-6.3
2016-01-06T21:39:07.914Z,-6.3
2016-01-06T21:40:08.215Z,-6.3
2016-01-06T21:42:08.813Z,-6.3
2016-01-06T21:43:09.113Z,-6.3
2016-01-06T21:44:09.412Z,-6.3
2016-01-06T21:45:09.758Z,-6.3
2016-01-06T21:46:11.543Z,-6.3
2016-01-06T21:47:11.842Z,-6.3
2016-01-06T21:48:12.142Z,-6.3
2016-01-06T21:49:12.441Z,-6.3
2016-01-06T21:50:12.725Z,-6.3
2016-01-06T21:51:13.039Z,-6.3
2016-01-06T21:52:13.324Z,-6.3
2016-01-06T21:53:13.624Z,-6.3
2016-01-06T21:54:13.923Z,-6.3